CG Katherine Walker — NKFW — position and weather

sailwx.info

Track history (hours):
 
Tides and Currents Weather Stations Pressure Air Temp Water Temp Dewpoint Dewpoint Depression Visibility Wind Speed Wind Dir Waves Ship Positions

CG Katherine Walker

Last reported at 2017-Dec-07 15:14 UTC. Time now 2017-Dec-14 06:31 UTC.
Position N 40°40' W 074°05'.

Length 53 m; draft 2.7 m.

Type: Military. MMSI: 368975000.

Date/timePositionNaut miles runAvg speedWind from/ knotsBaromVisibWave heightAir tempDewpointWater temp
2017-Dec-07 15:14N 40°40' W 074°05'1 5.4
2017-Dec-07 15:01N 40°40' W 074°04'4 8.8
2017-Dec-07 14:30N 40°42' W 073°59'5 7.8
2017-Dec-07 13:55N 40°47' W 073°56'3 6.6
2017-Dec-07 13:27N 40°48' W 073°53'4 9.3
2017-Dec-07 12:59N 40°48' W 073°47'3 0.7
2017-Dec-07 08:36N 40°51' W 073°45'0 0.0
2017-Dec-07 04:38N 40°51' W 073°45'0 0.0
2017-Dec-06 21:38N 40°51' W 073°45'  
2017-Nov-29 13:55N 40°40' W 074°05'2 5.2
2017-Nov-29 13:30N 40°41' W 074°03'612.7
2017-Nov-29 13:00N 40°47' W 073°60'511.0
2017-Nov-29 12:30N 40°52' W 073°57'0 0.0
2017-Nov-29 11:41N 40°52' W 073°57'0 0.0
2017-Nov-29 11:26N 40°52' W 073°57'0 0.0
2017-Nov-29 10:53N 40°52' W 073°57'0 0.0
2017-Nov-29 10:29N 40°52' W 073°57'0 0.0
2017-Nov-29 09:59N 40°52' W 073°57'0 0.0
2017-Nov-29 09:29N 40°52' W 073°57'0 0.0
2017-Nov-29 08:52N 40°52' W 073°57'0 0.0
2017-Nov-29 08:28N 40°52' W 073°57'0 0.0
2017-Nov-29 07:58N 40°52' W 073°57'0 0.0
2017-Nov-29 07:19N 40°52' W 073°57'0 0.0
2017-Nov-29 06:58N 40°52' W 073°57'0 0.0
2017-Nov-29 06:28N 40°52' W 073°57'0 0.1
2017-Nov-29 05:55N 40°52' W 073°57'0 0.0
2017-Nov-29 05:28N 40°52' W 073°57'0 0.0
2017-Nov-29 04:23N 40°52' W 073°57'0 0.0
2017-Nov-29 03:44N 40°52' W 073°57'0 0.0
2017-Nov-29 03:08N 40°52' W 073°57'0 0.0
2017-Nov-29 02:47N 40°52' W 073°57'0 0.0
2017-Nov-29 02:26N 40°52' W 073°57'0 0.0
2017-Nov-29 01:56N 40°52' W 073°57'0 0.1
2017-Nov-29 01:26N 40°52' W 073°57'0 0.0
2017-Nov-29 00:56N 40°52' W 073°57'0 0.1
2017-Nov-29 00:26N 40°52' W 073°57'0 0.0
2017-Nov-28 23:38N 40°52' W 073°57'0 0.0
2017-Nov-28 23:29N 40°52' W 073°57'2 5.0
2017-Nov-28 23:00N 40°54' W 073°55'4 0.1
2017-Nov-27 16:39N 40°58' W 073°54'310.8
2017-Nov-27 16:24N 40°55' W 073°55'410.7
2017-Nov-27 16:00N 40°51' W 073°57'510.4
2017-Nov-27 15:30N 40°47' W 073°60'  
Track history (hours):
 
Tides and Currents Weather Stations Pressure Air Temp Water Temp Dewpoint Dewpoint Depression Visibility Wind Speed Wind Dir Waves Ship Positions

CG Katherine Walker

Last reported at 2017-Dec-07 15:14 UTC. Time now 2017-Dec-14 06:31 UTC.
Position N 40°40' W 074°05'.

Length 53 m; draft 2.7 m.

Type: Military. MMSI: 368975000.

Date/timePositionNaut miles runAvg speedWind from/ knotsBaromVisibWave heightAir tempDewpointWater temp
2017-Dec-07 15:14N 40°40' W 074°05'1 5.4
2017-Dec-07 15:01N 40°40' W 074°04'4 8.8
2017-Dec-07 14:30N 40°42' W 073°59'5 7.8
2017-Dec-07 13:55N 40°47' W 073°56'3 6.6
2017-Dec-07 13:27N 40°48' W 073°53'4 9.3
2017-Dec-07 12:59N 40°48' W 073°47'3 0.7
2017-Dec-07 08:36N 40°51' W 073°45'0 0.0
2017-Dec-07 04:38N 40°51' W 073°45'0 0.0
2017-Dec-06 21:38N 40°51' W 073°45'  
2017-Nov-29 13:55N 40°40' W 074°05'2 5.2
2017-Nov-29 13:30N 40°41' W 074°03'612.7
2017-Nov-29 13:00N 40°47' W 073°60'511.0
2017-Nov-29 12:30N 40°52' W 073°57'0 0.0
2017-Nov-29 11:41N 40°52' W 073°57'0 0.0
2017-Nov-29 11:26N 40°52' W 073°57'0 0.0
2017-Nov-29 10:53N 40°52' W 073°57'0 0.0
2017-Nov-29 10:29N 40°52' W 073°57'0 0.0
2017-Nov-29 09:59N 40°52' W 073°57'0 0.0
2017-Nov-29 09:29N 40°52' W 073°57'0 0.0
2017-Nov-29 08:52N 40°52' W 073°57'0 0.0
2017-Nov-29 08:28N 40°52' W 073°57'0 0.0
2017-Nov-29 07:58N 40°52' W 073°57'0 0.0
2017-Nov-29 07:19N 40°52' W 073°57'0 0.0
2017-Nov-29 06:58N 40°52' W 073°57'0 0.0
2017-Nov-29 06:28N 40°52' W 073°57'0 0.1
2017-Nov-29 05:55N 40°52' W 073°57'0 0.0
2017-Nov-29 05:28N 40°52' W 073°57'0 0.0
2017-Nov-29 04:23N 40°52' W 073°57'0 0.0
2017-Nov-29 03:44N 40°52' W 073°57'0 0.0
2017-Nov-29 03:08N 40°52' W 073°57'0 0.0
2017-Nov-29 02:47N 40°52' W 073°57'0 0.0
2017-Nov-29 02:26N 40°52' W 073°57'0 0.0
2017-Nov-29 01:56N 40°52' W 073°57'0 0.1
2017-Nov-29 01:26N 40°52' W 073°57'0 0.0
2017-Nov-29 00:56N 40°52' W 073°57'0 0.1
2017-Nov-29 00:26N 40°52' W 073°57'0 0.0
2017-Nov-28 23:38N 40°52' W 073°57'0 0.0
2017-Nov-28 23:29N 40°52' W 073°57'2 5.0
2017-Nov-28 23:00N 40°54' W 073°55'4 0.1
2017-Nov-27 16:39N 40°58' W 073°54'310.8
2017-Nov-27 16:24N 40°55' W 073°55'410.7
2017-Nov-27 16:00N 40°51' W 073°57'510.4
2017-Nov-27 15:30N 40°47' W 073°60'  

Dump ship's entire track history